NGTAPLCH

Guest
Details From NGTA - Bonriki Intl
To PLCH - Christmas Island
Flight Number -
Tags Generated
Created
Modified
Stats Distance 1,771 nm / 3,281 km
Max Altitude 0 ft / 0 m
Waypoints 2
Social Downloads 2
Likes 0
Share VATSIM

Download

Looking for another format? Having issues loading an existing format? Contact us
Advertisement - Login to hide

Notes

Generated

Route

NGTA PLCH

ID Type Via Altitude Latitude Longitude Leg Dist Tot Dist Heading (true) Name
O NGTA APT - 0 ft / 0 m 1.38278˚ 173.13804˚ - 0 nm - -
O PLCH APT - 0 ft / 0 m 1.98633˚ -157.35922˚ 1771 nm 1771 nm 88° / 89° -

Altitude Profile

Advertisement - Login to hide

Weather


0- 5 10 15 20 25 30 35+ Temperature / ° C

Clouds and Precipitation
Forecast for 2017-12-16 18:00 UTC. Updated 2 hours ago

Ground ~20,000 ft ~40,000 ft Winds

NGTA

Details ICAO NGTA (TRW)
Name Bonriki International
Region Kiribati and Tuvalu
Timezone Pacific/Tarawa (UTC+12.0)
Stats Elevation 9 ft / 3 m (AMSL)
Location 1.381608° 173.146907°
Runways 1
Magnetic Variation 9.230° E

METAR

NGTA 161700Z 09003KT 9999 FEW020 27/25 Q1006

Decode

TAF

TAF NGTA 161109Z 1612/1712 07008KT 9999 SCT018 BKN045 PROB30 TEMPO 1700/1706 5000 SHRA BKN015

Decode

Departure Runways

ID Width Length Bearing (true) Bearing (mag) Surface Threshold Offset Overrun Length
09 131 ft / 40 m 6,622 ft / 2,018 m 97.30° 88.07° Asphalt 0 ft / 0 m 213 ft / 65 m
27 131 ft / 40 m 6,622 ft / 2,018 m 277.30° 268.07° Asphalt 269 ft / 82 m 197 ft / 60 m

PLCH

Details ICAO PLCH (CXI)
Name Cassidy International
Region Kiribati (Line Islands)
Timezone Pacific/Kiritimati (UTC+14.0)
Stats Elevation 5 ft / 2 m (AMSL)
Location 1.986270° -157.349914°
Runways 1
Magnetic Variation 9.041° E

METAR

PLCH 161700Z 11008KT 9999 FEW020 25/22 Q1009

Decode

TAF

TAF PLCH 161110Z 1612/1712 12010KT 9999 SCT018

Decode

Destination Runways

ID Width Length Bearing (true) Bearing (mag) Surface Threshold Offset Overrun Length
08 98 ft / 30 m 6,899 ft / 2,103 m 90.00° 80.96° Asphalt 0 ft / 0 m 0 ft / 0 m
26 98 ft / 30 m 6,899 ft / 2,103 m 270.00° 260.96° Asphalt 0 ft / 0 m 0 ft / 0 m